Sigourney, IA (52591)

02:19 AM CST del 07 Febbraio 2016 (GMT -0600)
Oskaloosa Municipal | | Change Station
CLOSE
Current Station
Aeroporto
Location: Oskaloosa,
Altitudine: 840 ft
Stazioni meteo nelle vicinanze

Alt. 840 ft 41.23 °N, 92.49 °W | Updated 24 minutes ago

Parzialmente nuvoloso
Parzialmente nuvoloso
37 °F
Sembra 28 °F
N
14
Vento Variabile Vento da SO

Oggi
Massima -- | Minima -- °F
--% Possibilità di precip.
Ieri
Massima -- | Minima -- °F
Precip. -- in
Pressione 29.92 in
Visibilità 10.0 miglia
Nuvole Sereno
Raffreddamento del vento 28 °F
Punto di rugiada 29 °F
Umidità 74%
Piovosità 0.00 in
Spessore del manto nevoso Non disponibile.
7:14 AM 5:32 PM
Luna calante, 2% visible
METAR KOOA 070755Z AUTO 23012KT 10SM CLR 03/M01 A2992 RMK AO2 T00271015
Pressione 29.92 in
Visibilità 10.0 miglia
Nuvole Sereno
Raffreddamento del vento 28 °F
Punto di rugiada 29 °F
Umidità 74%
Piovosità 0.00 in
Spessore del manto nevoso Non disponibile.
7:14 AM 5:32 PM
Luna calante, 2% visible
METAR KOOA 070755Z AUTO 23012KT 10SM CLR 03/M01 A2992 RMK AO2 T00271015

10-Day Weather Forecast

Almanac

Astronomia

Feb. 07, 2016 Alba Tramonto
Ora attuale
Crepuscolo civile
Crepuscolo nautico
Crepuscolo astronomico
Luna
Estensione della luce visibile
Lunghezza del giorno
Tomorrow will be .
, % of the Moon is Illuminated

Gli estremi di oggi

State Highs State Lows

Community

WunderPhotos

Upload Photos

1,891,171 foto caricate!

WunderBlog® & News

Nearby

Qualità dell'aria

  Qualità dell'aria Indice AQ Inquinante
Not available.

Profondità neve

Stazione Profondità Altitudine

Attività sismica

Città  Distanza Mag. Data & Ora
Minimo Magnitudo Mostrato è 2.5.

Temperature delle acque costiere

Località Temperatura

Stations

Stazioni meteo nelle vicinanze

Ubicazione della stazione Temp. Raffreddamento del vento Punto di rugiada Umidità Vento Precip. Alt. Aggiornato Tipo
                   

Watches & Warnings

There are currently no watches in effect.